sensor_id;sensor_type;location;lat;lon;timestamp;temperature;humidity
79439;DHT22;68889;48.232;10.110;2024-02-14T00:02:21;1.70;99.90
79439;DHT22;68889;48.232;10.110;2024-02-14T00:04:47;1.60;99.90
79439;DHT22;68889;48.232;10.110;2024-02-14T00:07:13;1.60;99.90
79439;DHT22;68889;48.232;10.110;2024-02-14T00:09:40;1.60;99.90
79439;DHT22;68889;48.232;10.110;2024-02-14T00:12:06;1.60;99.90
79439;DHT22;68889;48.232;10.110;2024-02-14T00:14:33;1.60;99.90
79439;DHT22;68889;48.232;10.110;2024-02-14T00:16:58;1.50;99.90
79439;DHT22;68889;48.232;10.110;2024-02-14T00:19:27;1.50;99.90
79439;DHT22;68889;48.232;10.110;2024-02-14T00:21:52;1.60;99.90
79439;DHT22;68889;48.232;10.110;2024-02-14T00:24:18;1.60;99.90
79439;DHT22;68889;48.232;10.110;2024-02-14T00:26:45;1.60;99.90
79439;DHT22;68889;48.232;10.110;2024-02-14T00:29:11;1.60;99.90
79439;DHT22;68889;48.232;10.110;2024-02-14T00:31:37;1.60;99.90
79439;DHT22;68889;48.232;10.110;2024-02-14T00:34:03;1.70;99.90
79439;DHT22;68889;48.232;10.110;2024-02-14T00:36:29;1.70;99.90
79439;DHT22;68889;48.232;10.110;2024-02-14T00:38:55;1.70;99.90
79439;DHT22;68889;48.232;10.110;2024-02-14T00:41:21;1.70;99.90
79439;DHT22;68889;48.232;10.110;2024-02-14T00:43:46;1.80;99.90
79439;DHT22;68889;48.232;10.110;2024-02-14T00:46:17;1.80;99.90
79439;DHT22;68889;48.232;10.110;2024-02-14T00:48:46;1.80;99.90
79439;DHT22;68889;48.232;10.110;2024-02-14T00:51:11;1.90;99.90
79439;DHT22;68889;48.232;10.110;2024-02-14T00:53:38;1.90;99.90
79439;DHT22;68889;48.232;10.110;2024-02-14T00:56:04;1.90;99.90
79439;DHT22;68889;48.232;10.110;2024-02-14T00:58:29;1.90;99.90
79439;DHT22;68889;48.232;10.110;2024-02-14T01:00:55;1.90;99.90
79439;DHT22;68889;48.232;10.110;2024-02-14T01:03:21;1.90;99.90
79439;DHT22;68889;48.232;10.110;2024-02-14T01:05:47;1.90;99.90
79439;DHT22;68889;48.232;10.110;2024-02-14T01:08:13;1.90;99.90
79439;DHT22;68889;48.232;10.110;2024-02-14T01:10:40;2.00;99.90
79439;DHT22;68889;48.232;10.110;2024-02-14T01:13:07;1.90;99.90
79439;DHT22;68889;48.232;10.110;2024-02-14T01:15:33;1.90;99.90
79439;DHT22;68889;48.232;10.110;2024-02-14T01:18:01;1.90;99.90
79439;DHT22;68889;48.232;10.110;2024-02-14T01:20:26;1.90;99.90
79439;DHT22;68889;48.232;10.110;2024-02-14T01:22:53;1.80;99.90
79439;DHT22;68889;48.232;10.110;2024-02-14T01:25:19;1.80;99.90
79439;DHT22;68889;48.232;10.110;2024-02-14T01:27:45;1.80;99.90
79439;DHT22;68889;48.232;10.110;2024-02-14T01:30:14;1.80;99.90
79439;DHT22;68889;48.232;10.110;2024-02-14T01:32:40;1.90;99.90
79439;DHT22;68889;48.232;10.110;2024-02-14T01:35:06;2.00;99.90
79439;DHT22;68889;48.232;10.110;2024-02-14T01:37:32;2.00;99.90
79439;DHT22;68889;48.232;10.110;2024-02-14T01:39:58;2.10;99.90
79439;DHT22;68889;48.232;10.110;2024-02-14T01:42:26;2.10;99.90
79439;DHT22;68889;48.232;10.110;2024-02-14T01:44:53;2.20;99.90
79439;DHT22;68889;48.232;10.110;2024-02-14T01:47:21;2.30;99.90
79439;DHT22;68889;48.232;10.110;2024-02-14T01:49:50;2.30;99.90
79439;DHT22;68889;48.232;10.110;2024-02-14T01:52:16;2.40;99.90
79439;DHT22;68889;48.232;10.110;2024-02-14T01:54:44;2.40;99.90
79439;DHT22;68889;48.232;10.110;2024-02-14T01:57:10;2.40;99.90
79439;DHT22;68889;48.232;10.110;2024-02-14T01:59:38;2.40;99.90
79439;DHT22;68889;48.232;10.110;2024-02-14T02:02:05;2.40;99.90
79439;DHT22;68889;48.232;10.110;2024-02-14T02:04:33;2.40;99.90
79439;DHT22;68889;48.232;10.110;2024-02-14T02:07:03;2.40;99.90
79439;DHT22;68889;48.232;10.110;2024-02-14T02:09:29;2.40;99.90
79439;DHT22;68889;48.232;10.110;2024-02-14T02:11:57;2.40;99.90
79439;DHT22;68889;48.232;10.110;2024-02-14T02:14:23;2.40;99.90
79439;DHT22;68889;48.232;10.110;2024-02-14T02:16:49;2.40;99.90
79439;DHT22;68889;48.232;10.110;2024-02-14T02:19:14;2.40;99.90
79439;DHT22;68889;48.232;10.110;2024-02-14T02:21:44;2.40;99.90
79439;DHT22;68889;48.232;10.110;2024-02-14T02:24:12;2.50;99.90
79439;DHT22;68889;48.232;10.110;2024-02-14T02:26:39;2.50;99.90
79439;DHT22;68889;48.232;10.110;2024-02-14T02:29:08;2.60;99.90
79439;DHT22;68889;48.232;10.110;2024-02-14T02:31:35;2.70;99.90
79439;DHT22;68889;48.232;10.110;2024-02-14T02:34:02;2.70;99.90
79439;DHT22;68889;48.232;10.110;2024-02-14T02:36:30;2.80;99.90
79439;DHT22;68889;48.232;10.110;2024-02-14T02:38:57;2.80;99.80
79439;DHT22;68889;48.232;10.110;2024-02-14T02:41:24;2.90;99.60
79439;DHT22;68889;48.232;10.110;2024-02-14T02:43:50;2.90;99.80
79439;DHT22;68889;48.232;10.110;2024-02-14T02:46:16;3.00;99.90
79439;DHT22;68889;48.232;10.110;2024-02-14T02:48:43;3.00;99.30
79439;DHT22;68889;48.232;10.110;2024-02-14T02:51:08;3.10;99.40
79439;DHT22;68889;48.232;10.110;2024-02-14T02:53:34;3.10;99.30
79439;DHT22;68889;48.232;10.110;2024-02-14T02:56:00;3.10;99.20
79439;DHT22;68889;48.232;10.110;2024-02-14T02:58:30;3.10;99.10
79439;DHT22;68889;48.232;10.110;2024-02-14T03:00:58;3.10;99.00
79439;DHT22;68889;48.232;10.110;2024-02-14T03:03:25;3.10;98.80
79439;DHT22;68889;48.232;10.110;2024-02-14T03:05:53;3.10;99.00
79439;DHT22;68889;48.232;10.110;2024-02-14T03:08:20;3.10;99.00
79439;DHT22;68889;48.232;10.110;2024-02-14T03:10:47;3.10;98.80
79439;DHT22;68889;48.232;10.110;2024-02-14T03:13:12;3.20;98.80
79439;DHT22;68889;48.232;10.110;2024-02-14T03:15:38;3.30;98.30
79439;DHT22;68889;48.232;10.110;2024-02-14T03:18:04;3.30;98.10
79439;DHT22;68889;48.232;10.110;2024-02-14T03:20:35;3.40;97.70
79439;DHT22;68889;48.232;10.110;2024-02-14T03:23:02;3.40;97.80
79439;DHT22;68889;48.232;10.110;2024-02-14T03:25:32;3.40;97.60
79439;DHT22;68889;48.232;10.110;2024-02-14T03:27:57;3.40;97.80
79439;DHT22;68889;48.232;10.110;2024-02-14T03:30:24;3.40;97.70
79439;DHT22;68889;48.232;10.110;2024-02-14T03:32:50;3.50;97.70
79439;DHT22;68889;48.232;10.110;2024-02-14T03:35:16;3.50;97.50
79439;DHT22;68889;48.232;10.110;2024-02-14T03:37:45;3.60;97.40
79439;DHT22;68889;48.232;10.110;2024-02-14T03:40:14;3.60;97.10
79439;DHT22;68889;48.232;10.110;2024-02-14T03:42:40;3.60;96.90
79439;DHT22;68889;48.232;10.110;2024-02-14T03:45:09;3.70;97.20
79439;DHT22;68889;48.232;10.110;2024-02-14T03:47:35;3.70;96.70
79439;DHT22;68889;48.232;10.110;2024-02-14T03:50:02;3.70;96.70
79439;DHT22;68889;48.232;10.110;2024-02-14T03:52:30;3.80;96.30
79439;DHT22;68889;48.232;10.110;2024-02-14T03:54:57;3.90;96.10
79439;DHT22;68889;48.232;10.110;2024-02-14T03:57:23;4.00;96.00
79439;DHT22;68889;48.232;10.110;2024-02-14T03:59:51;4.00;95.70
79439;DHT22;68889;48.232;10.110;2024-02-14T04:02:18;4.00;95.40
79439;DHT22;68889;48.232;10.110;2024-02-14T04:04:44;4.00;95.50
79439;DHT22;68889;48.232;10.110;2024-02-14T04:07:12;4.00;95.60
79439;DHT22;68889;48.232;10.110;2024-02-14T04:09:39;4.10;95.40
79439;DHT22;68889;48.232;10.110;2024-02-14T04:12:05;4.10;95.50
79439;DHT22;68889;48.232;10.110;2024-02-14T04:14:31;4.10;95.10
79439;DHT22;68889;48.232;10.110;2024-02-14T04:16:57;4.10;95.60
79439;DHT22;68889;48.232;10.110;2024-02-14T04:19:27;4.20;95.10
79439;DHT22;68889;48.232;10.110;2024-02-14T04:21:57;4.20;95.10
79439;DHT22;68889;48.232;10.110;2024-02-14T04:24:29;4.20;94.90
79439;DHT22;68889;48.232;10.110;2024-02-14T04:26:55;4.30;95.00
79439;DHT22;68889;48.232;10.110;2024-02-14T04:29:26;4.30;95.80
79439;DHT22;68889;48.232;10.110;2024-02-14T04:31:56;4.30;95.20
79439;DHT22;68889;48.232;10.110;2024-02-14T04:34:23;4.30;95.30
79439;DHT22;68889;48.232;10.110;2024-02-14T04:36:52;4.40;95.20
79439;DHT22;68889;48.232;10.110;2024-02-14T04:39:18;4.40;95.20
79439;DHT22;68889;48.232;10.110;2024-02-14T04:41:45;4.40;95.60
79439;DHT22;68889;48.232;10.110;2024-02-14T04:44:12;4.30;95.30
79439;DHT22;68889;48.232;10.110;2024-02-14T04:46:40;4.30;95.20
79439;DHT22;68889;48.232;10.110;2024-02-14T04:49:09;4.40;95.30
79439;DHT22;68889;48.232;10.110;2024-02-14T04:51:37;4.40;95.30
79439;DHT22;68889;48.232;10.110;2024-02-14T04:54:03;4.40;95.00
79439;DHT22;68889;48.232;10.110;2024-02-14T04:56:33;4.50;95.10
79439;DHT22;68889;48.232;10.110;2024-02-14T04:59:01;4.50;95.40
79439;DHT22;68889;48.232;10.110;2024-02-14T05:01:28;4.50;95.00
79439;DHT22;68889;48.232;10.110;2024-02-14T05:03:55;4.50;95.00
79439;DHT22;68889;48.232;10.110;2024-02-14T05:06:21;4.60;94.60
79439;DHT22;68889;48.232;10.110;2024-02-14T05:08:49;4.60;94.40
79439;DHT22;68889;48.232;10.110;2024-02-14T05:11:17;4.60;94.60
79439;DHT22;68889;48.232;10.110;2024-02-14T05:13:44;4.50;94.80
79439;DHT22;68889;48.232;10.110;2024-02-14T05:16:12;4.50;94.90
79439;DHT22;68889;48.232;10.110;2024-02-14T05:18:43;4.40;95.40
79439;DHT22;68889;48.232;10.110;2024-02-14T05:21:08;4.40;95.50
79439;DHT22;68889;48.232;10.110;2024-02-14T05:23:35;4.30;95.80
79439;DHT22;68889;48.232;10.110;2024-02-14T05:26:05;4.30;96.00
79439;DHT22;68889;48.232;10.110;2024-02-14T05:28:32;4.30;96.00
79439;DHT22;68889;48.232;10.110;2024-02-14T05:30:58;4.30;95.90
79439;DHT22;68889;48.232;10.110;2024-02-14T05:33:24;4.30;95.80
79439;DHT22;68889;48.232;10.110;2024-02-14T05:35:50;4.40;95.80
79439;DHT22;68889;48.232;10.110;2024-02-14T05:38:16;4.40;95.80
79439;DHT22;68889;48.232;10.110;2024-02-14T05:40:47;4.40;95.90
79439;DHT22;68889;48.232;10.110;2024-02-14T05:43:16;4.50;95.70
79439;DHT22;68889;48.232;10.110;2024-02-14T05:45:43;4.50;95.20
79439;DHT22;68889;48.232;10.110;2024-02-14T05:48:09;4.60;95.20
79439;DHT22;68889;48.232;10.110;2024-02-14T05:50:34;4.60;94.60
79439;DHT22;68889;48.232;10.110;2024-02-14T05:53:00;4.70;94.20
79439;DHT22;68889;48.232;10.110;2024-02-14T05:55:26;4.70;94.20
79439;DHT22;68889;48.232;10.110;2024-02-14T05:57:52;4.80;94.10
79439;DHT22;68889;48.232;10.110;2024-02-14T06:00:19;4.90;93.40
79439;DHT22;68889;48.232;10.110;2024-02-14T06:02:47;4.90;93.60
79439;DHT22;68889;48.232;10.110;2024-02-14T06:05:13;5.00;93.50
79439;DHT22;68889;48.232;10.110;2024-02-14T06:07:40;5.00;93.20
79439;DHT22;68889;48.232;10.110;2024-02-14T06:10:06;5.00;92.80
79439;DHT22;68889;48.232;10.110;2024-02-14T06:12:33;5.10;92.80
79439;DHT22;68889;48.232;10.110;2024-02-14T06:15:00;5.10;92.70
79439;DHT22;68889;48.232;10.110;2024-02-14T06:17:26;5.10;92.70
79439;DHT22;68889;48.232;10.110;2024-02-14T06:19:52;5.20;93.00
79439;DHT22;68889;48.232;10.110;2024-02-14T06:22:18;5.20;92.80
79439;DHT22;68889;48.232;10.110;2024-02-14T06:24:44;5.20;92.20
79439;DHT22;68889;48.232;10.110;2024-02-14T06:27:11;5.20;92.40
79439;DHT22;68889;48.232;10.110;2024-02-14T06:29:42;5.30;92.20
79439;DHT22;68889;48.232;10.110;2024-02-14T06:32:07;5.30;91.60
79439;DHT22;68889;48.232;10.110;2024-02-14T06:34:33;5.40;91.10
79439;DHT22;68889;48.232;10.110;2024-02-14T06:36:59;5.50;91.20
79439;DHT22;68889;48.232;10.110;2024-02-14T06:39:24;5.50;91.10
79439;DHT22;68889;48.232;10.110;2024-02-14T06:41:51;5.50;91.60
79439;DHT22;68889;48.232;10.110;2024-02-14T06:44:17;5.60;91.00
79439;DHT22;68889;48.232;10.110;2024-02-14T06:46:46;5.70;91.10
79439;DHT22;68889;48.232;10.110;2024-02-14T06:49:12;5.70;90.70
79439;DHT22;68889;48.232;10.110;2024-02-14T06:51:38;5.70;90.40
79439;DHT22;68889;48.232;10.110;2024-02-14T06:54:05;5.70;90.40
79439;DHT22;68889;48.232;10.110;2024-02-14T06:56:31;5.80;90.20
79439;DHT22;68889;48.232;10.110;2024-02-14T06:58:58;5.80;89.60
79439;DHT22;68889;48.232;10.110;2024-02-14T07:01:29;5.90;89.60
79439;DHT22;68889;48.232;10.110;2024-02-14T07:03:58;6.00;89.60
79439;DHT22;68889;48.232;10.110;2024-02-14T07:06:24;6.10;89.40
79439;DHT22;68889;48.232;10.110;2024-02-14T07:08:51;6.20;88.90
79439;DHT22;68889;48.232;10.110;2024-02-14T07:11:18;6.30;88.80
79439;DHT22;68889;48.232;10.110;2024-02-14T07:13:44;6.40;89.40
79439;DHT22;68889;48.232;10.110;2024-02-14T07:16:17;6.40;88.90
79439;DHT22;68889;48.232;10.110;2024-02-14T07:18:43;6.50;88.90
79439;DHT22;68889;48.232;10.110;2024-02-14T07:21:08;6.50;90.20
79439;DHT22;68889;48.232;10.110;2024-02-14T07:23:35;6.50;89.00
79439;DHT22;68889;48.232;10.110;2024-02-14T07:26:01;6.50;89.50
79439;DHT22;68889;48.232;10.110;2024-02-14T07:28:29;6.60;89.30
79439;DHT22;68889;48.232;10.110;2024-02-14T07:30:55;6.70;89.20
79439;DHT22;68889;48.232;10.110;2024-02-14T07:33:22;6.80;88.20
79439;DHT22;68889;48.232;10.110;2024-02-14T07:35:49;6.90;87.90
79439;DHT22;68889;48.232;10.110;2024-02-14T07:38:15;6.90;87.20
79439;DHT22;68889;48.232;10.110;2024-02-14T07:40:42;6.90;87.70
79439;DHT22;68889;48.232;10.110;2024-02-14T07:43:08;6.90;86.70
79439;DHT22;68889;48.232;10.110;2024-02-14T07:45:34;6.90;86.50
79439;DHT22;68889;48.232;10.110;2024-02-14T07:48:00;7.00;86.20
79439;DHT22;68889;48.232;10.110;2024-02-14T07:50:28;7.00;86.50
79439;DHT22;68889;48.232;10.110;2024-02-14T07:53:06;7.00;86.10
79439;DHT22;68889;48.232;10.110;2024-02-14T07:55:35;7.10;85.40
79439;DHT22;68889;48.232;10.110;2024-02-14T07:58:03;7.10;85.60
79439;DHT22;68889;48.232;10.110;2024-02-14T08:00:29;7.10;85.70
79439;DHT22;68889;48.232;10.110;2024-02-14T08:02:57;7.20;85.30
79439;DHT22;68889;48.232;10.110;2024-02-14T08:05:23;7.20;84.60
79439;DHT22;68889;48.232;10.110;2024-02-14T08:07:51;7.20;85.40
79439;DHT22;68889;48.232;10.110;2024-02-14T08:10:19;7.30;84.70
79439;DHT22;68889;48.232;10.110;2024-02-14T08:12:48;7.40;84.60
79439;DHT22;68889;48.232;10.110;2024-02-14T08:15:14;7.50;84.70
79439;DHT22;68889;48.232;10.110;2024-02-14T08:17:40;7.60;84.80
79439;DHT22;68889;48.232;10.110;2024-02-14T08:20:10;7.80;84.60
79439;DHT22;68889;48.232;10.110;2024-02-14T08:22:45;7.90;83.10
79439;DHT22;68889;48.232;10.110;2024-02-14T08:25:44;8.10;83.50
79439;DHT22;68889;48.232;10.110;2024-02-14T08:28:37;8.20;82.50
79439;DHT22;68889;48.232;10.110;2024-02-14T08:31:19;8.30;82.30
79439;DHT22;68889;48.232;10.110;2024-02-14T08:34:14;8.50;82.40
79439;DHT22;68889;48.232;10.110;2024-02-14T08:36:44;8.60;81.40
79439;DHT22;68889;48.232;10.110;2024-02-14T08:39:12;8.70;81.30
79439;DHT22;68889;48.232;10.110;2024-02-14T08:41:43;8.80;80.10
79439;DHT22;68889;48.232;10.110;2024-02-14T08:44:21;8.90;80.20
79439;DHT22;68889;48.232;10.110;2024-02-14T08:46:50;9.00;79.70
79439;DHT22;68889;48.232;10.110;2024-02-14T08:49:27;9.10;79.70
79439;DHT22;68889;48.232;10.110;2024-02-14T08:52:17;9.20;79.10
79439;DHT22;68889;48.232;10.110;2024-02-14T08:55:10;9.40;79.80
79439;DHT22;68889;48.232;10.110;2024-02-14T08:57:55;9.50;78.80
79439;DHT22;68889;48.232;10.110;2024-02-14T09:00:25;9.60;78.00
79439;DHT22;68889;48.232;10.110;2024-02-14T09:03:39;9.70;79.10
79439;DHT22;68889;48.232;10.110;2024-02-14T09:06:15;9.90;78.60
79439;DHT22;68889;48.232;10.110;2024-02-14T09:08:52;10.20;78.30
79439;DHT22;68889;48.232;10.110;2024-02-14T09:11:25;10.60;77.10
79439;DHT22;68889;48.232;10.110;2024-02-14T09:13:58;10.70;76.80
79439;DHT22;68889;48.232;10.110;2024-02-14T09:16:42;10.80;75.40
79439;DHT22;68889;48.232;10.110;2024-02-14T09:19:15;10.90;76.70
79439;DHT22;68889;48.232;10.110;2024-02-14T09:22:22;11.00;76.10
79439;DHT22;68889;48.232;10.110;2024-02-14T09:25:00;11.00;75.80
79439;DHT22;68889;48.232;10.110;2024-02-14T09:27:37;10.90;74.40
79439;DHT22;68889;48.232;10.110;2024-02-14T09:30:15;10.80;75.00
79439;DHT22;68889;48.232;10.110;2024-02-14T09:33:12;10.70;75.80
79439;DHT22;68889;48.232;10.110;2024-02-14T09:35:41;10.50;74.90
79439;DHT22;68889;48.232;10.110;2024-02-14T09:38:14;10.50;75.50
79439;DHT22;68889;48.232;10.110;2024-02-14T09:40:44;10.50;75.80
79439;DHT22;68889;48.232;10.110;2024-02-14T09:43:39;10.60;76.00
79439;DHT22;68889;48.232;10.110;2024-02-14T09:46:08;10.80;76.00
79439;DHT22;68889;48.232;10.110;2024-02-14T09:48:48;10.90;75.00
79439;DHT22;68889;48.232;10.110;2024-02-14T09:51:32;11.00;75.10
79439;DHT22;68889;48.232;10.110;2024-02-14T09:54:11;11.20;74.30
79439;DHT22;68889;48.232;10.110;2024-02-14T09:57:05;11.20;74.20
79439;DHT22;68889;48.232;10.110;2024-02-14T09:59:57;11.20;73.50
79439;DHT22;68889;48.232;10.110;2024-02-14T10:02:42;11.20;74.40
79439;DHT22;68889;48.232;10.110;2024-02-14T10:05:18;11.20;75.50
79439;DHT22;68889;48.232;10.110;2024-02-14T10:07:45;11.30;73.30
79439;DHT22;68889;48.232;10.110;2024-02-14T10:10:12;11.30;72.90
79439;DHT22;68889;48.232;10.110;2024-02-14T10:12:47;11.40;73.60
79439;DHT22;68889;48.232;10.110;2024-02-14T10:15:39;11.40;71.70
79439;DHT22;68889;48.232;10.110;2024-02-14T10:18:27;11.30;72.00
79439;DHT22;68889;48.232;10.110;2024-02-14T10:20:56;11.30;72.00
79439;DHT22;68889;48.232;10.110;2024-02-14T10:23:22;11.30;72.10
79439;DHT22;68889;48.232;10.110;2024-02-14T10:25:57;11.20;72.50
79439;DHT22;68889;48.232;10.110;2024-02-14T10:28:35;11.30;72.60
79439;DHT22;68889;48.232;10.110;2024-02-14T10:31:01;11.40;72.30
79439;DHT22;68889;48.232;10.110;2024-02-14T10:33:33;11.50;72.10
79439;DHT22;68889;48.232;10.110;2024-02-14T10:36:12;11.70;72.60
79439;DHT22;68889;48.232;10.110;2024-02-14T10:38:41;11.70;72.20
79439;DHT22;68889;48.232;10.110;2024-02-14T10:41:11;11.70;72.80
79439;DHT22;68889;48.232;10.110;2024-02-14T10:43:53;11.80;72.70
79439;DHT22;68889;48.232;10.110;2024-02-14T10:46:20;11.80;75.00
79439;DHT22;68889;48.232;10.110;2024-02-14T10:49:06;11.70;76.80
79439;DHT22;68889;48.232;10.110;2024-02-14T10:51:43;11.70;78.40
79439;DHT22;68889;48.232;10.110;2024-02-14T10:54:14;11.60;79.10
79439;DHT22;68889;48.232;10.110;2024-02-14T10:56:49;11.50;79.90
79439;DHT22;68889;48.232;10.110;2024-02-14T10:59:29;11.50;78.60
79439;DHT22;68889;48.232;10.110;2024-02-14T11:02:05;11.40;79.00
79439;DHT22;68889;48.232;10.110;2024-02-14T11:04:34;11.40;79.00
79439;DHT22;68889;48.232;10.110;2024-02-14T11:07:29;11.30;78.10
79439;DHT22;68889;48.232;10.110;2024-02-14T11:10:05;11.30;79.00
79439;DHT22;68889;48.232;10.110;2024-02-14T11:12:37;11.10;79.20
79439;DHT22;68889;48.232;10.110;2024-02-14T11:15:16;10.90;78.90
79439;DHT22;68889;48.232;10.110;2024-02-14T11:17:50;10.90;79.40
79439;DHT22;68889;48.232;10.110;2024-02-14T11:20:34;11.00;79.50
79439;DHT22;68889;48.232;10.110;2024-02-14T11:23:05;11.10;79.70
79439;DHT22;68889;48.232;10.110;2024-02-14T11:25:38;11.20;79.30
79439;DHT22;68889;48.232;10.110;2024-02-14T11:28:25;11.40;79.30
79439;DHT22;68889;48.232;10.110;2024-02-14T11:31:00;11.70;78.10
79439;DHT22;68889;48.232;10.110;2024-02-14T11:33:33;11.80;76.90
79439;DHT22;68889;48.232;10.110;2024-02-14T11:36:08;11.90;76.20
79439;DHT22;68889;48.232;10.110;2024-02-14T11:38:41;12.00;75.40
79439;DHT22;68889;48.232;10.110;2024-02-14T11:41:08;12.10;76.80
79439;DHT22;68889;48.232;10.110;2024-02-14T11:43:39;12.20;76.40
79439;DHT22;68889;48.232;10.110;2024-02-14T11:46:07;12.40;75.30
79439;DHT22;68889;48.232;10.110;2024-02-14T11:48:49;12.30;75.50
79439;DHT22;68889;48.232;10.110;2024-02-14T11:51:21;12.20;76.60
79439;DHT22;68889;48.232;10.110;2024-02-14T11:53:51;12.30;75.80
79439;DHT22;68889;48.232;10.110;2024-02-14T11:56:18;12.50;75.60
79439;DHT22;68889;48.232;10.110;2024-02-14T11:58:50;12.60;75.10
79439;DHT22;68889;48.232;10.110;2024-02-14T12:01:18;12.70;76.00
79439;DHT22;68889;48.232;10.110;2024-02-14T12:03:46;12.60;76.00
79439;DHT22;68889;48.232;10.110;2024-02-14T12:06:28;12.70;75.50
79439;DHT22;68889;48.232;10.110;2024-02-14T12:09:12;12.60;75.70
79439;DHT22;68889;48.232;10.110;2024-02-14T12:11:40;12.60;75.90
79439;DHT22;68889;48.232;10.110;2024-02-14T12:14:12;12.80;75.00
79439;DHT22;68889;48.232;10.110;2024-02-14T12:16:39;13.00;74.90
79439;DHT22;68889;48.232;10.110;2024-02-14T12:19:06;13.10;74.30
79439;DHT22;68889;48.232;10.110;2024-02-14T12:21:39;13.00;74.70
79439;DHT22;68889;48.232;10.110;2024-02-14T12:24:08;13.20;75.00
79439;DHT22;68889;48.232;10.110;2024-02-14T12:26:38;13.30;73.90
79439;DHT22;68889;48.232;10.110;2024-02-14T12:29:04;13.60;74.60
79439;DHT22;68889;48.232;10.110;2024-02-14T12:31:35;13.70;72.90
79439;DHT22;68889;48.232;10.110;2024-02-14T12:34:03;13.70;74.20
79439;DHT22;68889;48.232;10.110;2024-02-14T12:36:31;13.80;73.40
79439;DHT22;68889;48.232;10.110;2024-02-14T12:39:00;13.70;73.90
79439;DHT22;68889;48.232;10.110;2024-02-14T12:41:31;13.50;74.70
79439;DHT22;68889;48.232;10.110;2024-02-14T12:43:58;13.60;75.20
79439;DHT22;68889;48.232;10.110;2024-02-14T12:46:27;13.90;76.00
79439;DHT22;68889;48.232;10.110;2024-02-14T12:48:53;14.00;75.10
79439;DHT22;68889;48.232;10.110;2024-02-14T12:51:20;14.20;74.70
79439;DHT22;68889;48.232;10.110;2024-02-14T12:53:45;14.40;74.30
79439;DHT22;68889;48.232;10.110;2024-02-14T12:56:11;14.60;75.40
79439;DHT22;68889;48.232;10.110;2024-02-14T12:58:38;15.00;74.00
79439;DHT22;68889;48.232;10.110;2024-02-14T13:01:06;15.20;73.10
79439;DHT22;68889;48.232;10.110;2024-02-14T13:03:33;15.30;73.70
79439;DHT22;68889;48.232;10.110;2024-02-14T13:06:00;15.50;73.20
79439;DHT22;68889;48.232;10.110;2024-02-14T13:08:26;15.50;72.80
79439;DHT22;68889;48.232;10.110;2024-02-14T13:10:52;15.50;72.60
79439;DHT22;68889;48.232;10.110;2024-02-14T13:13:18;15.40;72.30
79439;DHT22;68889;48.232;10.110;2024-02-14T13:15:44;15.50;73.20
79439;DHT22;68889;48.232;10.110;2024-02-14T13:18:15;15.80;73.20
79439;DHT22;68889;48.232;10.110;2024-02-14T13:20:42;15.70;72.20
79439;DHT22;68889;48.232;10.110;2024-02-14T13:23:09;15.80;72.40
79439;DHT22;68889;48.232;10.110;2024-02-14T13:25:36;15.90;72.90
79439;DHT22;68889;48.232;10.110;2024-02-14T13:28:04;16.10;72.00
79439;DHT22;68889;48.232;10.110;2024-02-14T13:30:30;16.30;71.20
79439;DHT22;68889;48.232;10.110;2024-02-14T13:32:56;16.50;71.10
79439;DHT22;68889;48.232;10.110;2024-02-14T13:35:22;16.30;71.20
79439;DHT22;68889;48.232;10.110;2024-02-14T13:37:49;16.20;71.80
79439;DHT22;68889;48.232;10.110;2024-02-14T13:40:14;16.00;72.50
79439;DHT22;68889;48.232;10.110;2024-02-14T13:42:42;15.80;71.90
79439;DHT22;68889;48.232;10.110;2024-02-14T13:45:08;15.50;72.70
79439;DHT22;68889;48.232;10.110;2024-02-14T13:47:37;15.40;73.50
79439;DHT22;68889;48.232;10.110;2024-02-14T13:50:09;15.40;73.50
79439;DHT22;68889;48.232;10.110;2024-02-14T13:52:35;15.30;75.00
79439;DHT22;68889;48.232;10.110;2024-02-14T13:55:05;15.10;73.90
79439;DHT22;68889;48.232;10.110;2024-02-14T13:57:39;14.90;74.40
79439;DHT22;68889;48.232;10.110;2024-02-14T14:00:07;14.70;75.60
79439;DHT22;68889;48.232;10.110;2024-02-14T14:02:41;14.70;75.50
79439;DHT22;68889;48.232;10.110;2024-02-14T14:05:09;14.60;75.80
79439;DHT22;68889;48.232;10.110;2024-02-14T14:07:40;14.60;76.00
79439;DHT22;68889;48.232;10.110;2024-02-14T14:10:06;14.60;76.10
79439;DHT22;68889;48.232;10.110;2024-02-14T14:12:33;14.60;76.40
79439;DHT22;68889;48.232;10.110;2024-02-14T14:14:59;14.60;76.80
79439;DHT22;68889;48.232;10.110;2024-02-14T14:17:24;14.60;76.30
79439;DHT22;68889;48.232;10.110;2024-02-14T14:19:50;14.50;76.00
79439;DHT22;68889;48.232;10.110;2024-02-14T14:22:16;14.40;76.50
79439;DHT22;68889;48.232;10.110;2024-02-14T14:24:42;14.30;76.60
79439;DHT22;68889;48.232;10.110;2024-02-14T14:27:08;14.20;77.30
79439;DHT22;68889;48.232;10.110;2024-02-14T14:29:42;14.20;76.80
79439;DHT22;68889;48.232;10.110;2024-02-14T14:32:08;14.20;76.80
79439;DHT22;68889;48.232;10.110;2024-02-14T14:34:34;14.20;77.00
79439;DHT22;68889;48.232;10.110;2024-02-14T14:37:00;14.20;77.30
79439;DHT22;68889;48.232;10.110;2024-02-14T14:39:26;14.00;77.50
79439;DHT22;68889;48.232;10.110;2024-02-14T14:41:52;13.90;77.70
79439;DHT22;68889;48.232;10.110;2024-02-14T14:44:19;13.90;78.00
79439;DHT22;68889;48.232;10.110;2024-02-14T14:46:45;13.80;78.60
79439;DHT22;68889;48.232;10.110;2024-02-14T14:49:11;13.80;77.70
79439;DHT22;68889;48.232;10.110;2024-02-14T14:51:37;13.80;78.40
79439;DHT22;68889;48.232;10.110;2024-02-14T14:54:04;13.70;78.60
79439;DHT22;68889;48.232;10.110;2024-02-14T14:56:30;13.70;78.30
79439;DHT22;68889;48.232;10.110;2024-02-14T14:58:57;13.60;78.80
79439;DHT22;68889;48.232;10.110;2024-02-14T15:01:26;13.60;79.50
79439;DHT22;68889;48.232;10.110;2024-02-14T15:03:58;13.60;79.30
79439;DHT22;68889;48.232;10.110;2024-02-14T15:06:26;13.70;78.90
79439;DHT22;68889;48.232;10.110;2024-02-14T15:09:04;13.60;78.60
79439;DHT22;68889;48.232;10.110;2024-02-14T15:11:35;13.60;79.40
79439;DHT22;68889;48.232;10.110;2024-02-14T15:14:00;13.50;79.80
79439;DHT22;68889;48.232;10.110;2024-02-14T15:16:27;13.50;79.90
79439;DHT22;68889;48.232;10.110;2024-02-14T15:18:58;13.50;79.90
79439;DHT22;68889;48.232;10.110;2024-02-14T15:21:26;13.40;80.50
79439;DHT22;68889;48.232;10.110;2024-02-14T15:24:02;13.40;80.40
79439;DHT22;68889;48.232;10.110;2024-02-14T15:26:32;13.30;80.40
79439;DHT22;68889;48.232;10.110;2024-02-14T15:29:17;13.30;80.50
79439;DHT22;68889;48.232;10.110;2024-02-14T15:32:01;13.30;80.50
79439;DHT22;68889;48.232;10.110;2024-02-14T15:34:52;13.20;80.90
79439;DHT22;68889;48.232;10.110;2024-02-14T15:37:18;13.20;81.10
79439;DHT22;68889;48.232;10.110;2024-02-14T15:39:44;13.20;81.30
79439;DHT22;68889;48.232;10.110;2024-02-14T15:42:11;13.10;81.40